Aérodrome :
LOGIN :

S'inscrire | Disclaimer

   EN    FR    IT 

 










Légende :    VFR   VFR Marginal   IFR   IFR Intensif   IFR Très Intensif
Visi : 
Plafond : 
>= 8 km
>= 3000ft
5 à 8 km
1000 à 3000 ft
1500m à 5 km
500 à 1000 ft
800 à 1500m
200 à 500 ft
< 800m
< 200 ft
Symboles :   Orages  Brouillard  Fortes neiges  Fortes précipitations  Vent > 20 kt
SIGMETs :   Divers  Orages  Givrage  Turbulence  Onde Orograph.  Cendres Volcan.







- Altitude de l'aérodrome : 7 ft
- Code IATA : VCE


LIPZ - Marco Polo Int. Venezia

DERNIER METAR :
  • 161350Z 14008KT CAVOK 25/18 Q1017 NOSIG

METARs EXPIRÉS :
  • 161320Z 14008KT CAVOK 25/18 Q1017 NOSIG
  • 161250Z 14007KT 110V170 CAVOK 25/18 Q1017 NOSIG
  • 161220Z 15006KT CAVOK 26/18 Q1018 NOSIG
  • 161150Z 15007KT CAVOK 25/19 Q1018 NOSIG
  • 161120Z 15006KT 120V190 CAVOK 26/19 Q1018 NOSIG

TAF TAF LIPZ
Valide du 16 à 12h jusqu'au 17 à 18h UTC


161100Z 1612/1718 17010KT CAVOK
BECMG 1616/1618 VRB04KT
TEMPO 1702/1706 4000 BR
BECMG 1711/1713 16010KT
Pas de NOTAMs connus pour ce terrain.



MET'MAP, la Météo Aéronautique d'un coup d'oeil ! - Copyright ORBIFLY Décembre 2007 - Disclaimer

ORBIFLY MET'MAP TEAM :

Programmation & Développement : Alexandra Zaïnal
Conception & Développement : Baudouin d'Aumeries
Co-Programmation & Développement : Marc-Olivier Méhu
Soutien technique & logistique : Manuel Goepfert

Contact : metmap@orbifly.com




SOURCES & CREDITS :

   NOAA